Eyers Grove, Pennsylvania
Current Conditions -  °F | °C
As of 10:54 PM on Saturday 20 Dec 2014 (Local Time) from KIPT Reporting Station
Overcast Overcast  
Wind Chill: -3°   Ceiling: 3100
Heat Index: -1°   Visibility: 10mi
Dew Point: -6°   Wind: 5mph
Humidity: 67%   Direction: 250°WSW
Pressure: 30.28"   Gusts: NA
Location:  41.1401°N, 76.5245°W
Report Text: KIPT 210354Z AUTO 25004KT 10SM OVC031 M01/M06 A3028 RMK AO2 SLP258 T10061061
Loading
Personal Weather Stations






























Interactive Weather Map New forecast layout! Learn more

10-Day Weather Forecast

Advertisements
Track Severe Weather on mobile